Flight Track Log - Related Links

Times and Time Zones

All times are in EST time to prevent confusion due to time zone crossing. See the PDT4226 flight status page for this flight to view local times or setup timezone preferences in your user account.

Time Position Orientation Groundspeed Altitude Reporting Facility
EST Latitude Longitude Course Direction KTS MPH feet Rate Location/Type
Thu 11:50:35 AM 39.9000 -75.2333 311° West 122 140 600  Level Philadelphia TRACON
Thu 11:51:29 AM 39.9000 -75.2833 270° West 136 157 2,100 1,684 Climbing Philadelphia TRACON
Thu 11:52:29 AM 39.9167 -75.3167 303° West 127 146 3,800 1,579 Climbing Philadelphia TRACON
Thu 11:53:00 AM 40.0524 -75.2960 303° West  Level Estimated
Thu 11:53:23 AM 39.9167 -75.3667 270° West 129 148 5,100  Level Philadelphia TRACON
Thu 11:54:00 AM 40.1125 -75.3144 330° Northwest  Level Estimated
Thu 11:54:29 AM 39.9333 -75.4167 294° West 129 148 6,700  Level Philadelphia TRACON
Thu 11:55:00 AM 40.1434 -75.3842 300° West  Level FlightAware Approximate
Thu 11:55:35 AM 39.9667 -75.4333 339° North 151 174 8,300  Level Philadelphia TRACON
Thu 11:56:00 AM 40.2038 -75.4010 311° West  Level Estimated
Thu 11:56:29 AM 40.0000 -75.4500 339° North 157 181 9,000  Level Philadelphia TRACON
Thu 11:57:29 AM 40.0500 -75.4833 333° Northwest 206 237 9,300 472 Climbing Philadelphia TRACON
Thu 11:58:36 AM 40.1017 -75.5092 339° North 193 222 10,000 378 Climbing New York Center
Thu 11:59:36 AM 40.1589 -75.5375 339° North 210 242 10,100  Climbing New York Center
Thu 12:00:36 PM 40.2125 -75.5547 346° North 217 250 10,000 -50 Descending New York Center
Thu 12:01:36 PM 40.2581 -75.6094 317° Northwest 211 243 10,000  Level New York Center
Thu 12:02:36 PM 40.2911 -75.6717 305° West 205 236 10,000  Level New York Center
Thu 12:03:36 PM 40.3303 -75.7289 312° West 210 242 10,000  Level New York Center
Thu 12:04:36 PM 40.3681 -75.7753 317° Northwest 210 242 10,000  Level New York Center
Thu 12:05:36 PM 40.4283 -75.7769 359° North 196 226 10,000  Level New York Center
Thu 12:06:36 PM 40.4967 -75.7900 352° North 217 250 10,000  Level New York Center
Thu 12:07:36 PM 40.5589 -75.7919 359° North 217 250 10,000  Level New York Center
Thu 12:08:36 PM 40.6217 -75.7883 North 222 255 10,000  Level New York Center
Thu 12:09:36 PM 40.6775 -75.8006 351° North 217 250 10,000  Level New York Center
Thu 12:10:36 PM 40.7392 -75.8161 349° North 217 250 10,000  Level New York Center
Thu 12:11:36 PM 40.8058 -75.8183 359° North 217 250 10,000  Level New York Center
Thu 12:12:36 PM 40.8681 -75.8256 355° North 217 250 10,000  Level New York Center
Thu 12:13:36 PM 40.9281 -75.8383 351° North 217 250 10,000  Level New York Center
Thu 12:14:36 PM 40.9817 -75.8506 350° North 217 250 10,000 -50 Level New York Center
Thu 12:15:36 PM 41.0458 -75.8581 355° North 217 250 9,900  Descending New York Center
Thu 12:16:36 PM 41.1061 -75.8597 359° North 217 250 10,000 50 Climbing New York Center
Thu 12:17:36 PM 41.1725 -75.8675 355° North 217 250 10,000  Level New York Center
Thu 12:18:36 PM 41.2325 -75.8775 353° North 217 250 10,000 -50 Level New York Center
Thu 12:19:36 PM 41.2903 -75.8875 353° North 217 250 9,900  Descending New York Center
Thu 12:20:36 PM 41.3528 -75.8867 North 217 250 10,000  Climbing New York Center
Thu 12:21:36 PM 41.4153 -75.8914 357° North 217 250 9,900 -400 Descending New York Center
Thu 12:22:36 PM 41.4772 -75.9044 351° North 217 250 9,200 -800 Descending New York Center
Thu 12:23:36 PM 41.5414 -75.9122 355° North 223 257 8,300 -600 Descending New York Center
Thu 12:24:36 PM 41.6058 -75.9144 359° North 223 257 8,000 -150 Descending New York Center
Thu 12:25:36 PM 41.6556 -75.9208 355° North 216 249 8,000  Level New York Center
Thu 12:26:36 PM 41.7136 -75.9256 357° North 209 241 8,000 -100 Level New York Center
Thu 12:27:36 PM 41.7736 -75.9328 355° North 204 235 7,800 -650 Descending New York Center
Thu 12:28:36 PM 41.8317 -75.9403 355° North 199 229 6,700 -1,000 Descending New York Center
Thu 12:29:36 PM 41.8833 -75.9497 352° North 194 223 5,800 -850 Descending New York Center
Thu 12:30:36 PM 41.9292 -75.9506 359° North 188 216 5,000 -700 Descending New York Center
Thu 12:31:36 PM 41.9872 -75.9550 357° North 188 216 4,400 -450 Descending New York Center
Thu 12:32:36 PM 42.0350 -75.9589 357° North 188 216 4,100 -400 Descending New York Center
Thu 12:33:36 PM 42.0850 -75.9544 North 182 209 3,600 -400 Descending New York Center
Thu 12:34:36 PM 42.1231 -75.9433 12° North 163 188 3,300 -400 Descending New York Center
Thu 12:35:36 PM 42.1583 -75.9433 360° North 141 162 2,800 -500 Descending New York Center

Login

Don't have an account? Register now (free) for customized features, flight alerts, and more!